Delft, Netherlands

5:19 PM CET on February 10, 2016 (GMT +0100)
Weerstation Delft-Noord | | Change Station
CLOSE
Current Station
Personal Weather Station
Location: Delft, ZUID-HOLLAND
Elevation: 0 ft
Nearby Weather Stations

Elev 0 ft 52.02 °N, 4.35 °E | Updated 8 minutes ago

Overcast
Overcast
44.4 °F
Feels Like 41 °F
N
6.0
Wind Variable Wind from NW
Gusts 6.0 mph

Today
High -- | Low -- °F
--% Chance of Precip.
Yesterday
High -- | Low -- °F
Precip. -- in
Pressure 29.42 in
Visibility 6.2 miles
Clouds Few 1300 ft
Few 1500 ft
Scattered Clouds 2800 ft
Overcast 3200 ft
Windchill 41 °F
Dew Point 44 °F
Humidity 98%
Rainfall 0.32 in
Snow Depth Not available.
8:08 AM 5:46 PM
Waxing Crescent, 6% visible
SPECI EHWO 101603Z AUTO 29008KT 230V310 9999 FEW013 FEW015CB SCT028 OVC032 06/05 Q0996 BLU
Pressure 29.42 in
Visibility 6.2 miles
Clouds Few 1300 ft
Few 1500 ft
Scattered Clouds 2800 ft
Overcast 3200 ft
Windchill 41 °F
Dew Point 44 °F
Humidity 98%
Rainfall 0.32 in
Snow Depth Not available.
8:08 AM 5:46 PM
Waxing Crescent, 6% visible
SPECI EHWO 101603Z AUTO 29008KT 230V310 9999 FEW013 FEW015CB SCT028 OVC032 06/05 Q0996 BLU

10-Day Weather Forecast

Almanac

Astronomy

Feb. 10, 2016 Rise Set
Actual Time
Civil Twilight
Nautical Twilight
Astronomical Twilight
Moon
Length of Visible Light
Length of Day
Tomorrow will be .
, % of the Moon is Illuminated

Today's Extremes

Country Highs Country Lows

Community

WunderPhotos

Upload Photos

1,891,864 photos uploaded!

WunderBlog® & News

Nearby

Air Quality

  Air Quality AQ Index Pollutant
Not available.

Snow Depth

Station Depth Elevation

Earthquake Activity

City Distance Mag. Time & Date
Minimum magnitude displayed is 2.5.

Coastal Water Temperatures

Place Temperature

Stations

Nearby Weather Stations

Station Location Temp. Windchill Dew Point Humidity Wind Precip. Elev Updated Type